createdAt,value
2018-07-22T00:00:22.139Z,0.00
2018-07-22T00:01:22.129Z,0.00
2018-07-22T00:02:22.135Z,0.00
2018-07-22T00:03:22.127Z,0.00
2018-07-22T00:04:22.101Z,0.00
2018-07-22T00:05:22.123Z,0.00
2018-07-22T00:06:22.104Z,0.00
2018-07-22T00:07:22.092Z,0.00
2018-07-22T00:08:22.083Z,0.00
2018-07-22T00:09:22.068Z,0.00
2018-07-22T00:10:22.077Z,0.00
2018-07-22T00:11:22.070Z,0.00
2018-07-22T00:12:22.055Z,0.00
2018-07-22T00:13:22.054Z,0.00
2018-07-22T00:14:22.044Z,0.00
2018-07-22T00:15:22.052Z,0.00
2018-07-22T00:16:22.033Z,0.00
2018-07-22T00:17:22.011Z,0.00
2018-07-22T00:18:22.009Z,0.00
2018-07-22T00:19:22.010Z,0.00
2018-07-22T00:20:22.019Z,0.00
2018-07-22T00:21:22.000Z,0.00
2018-07-22T00:22:22.003Z,0.00
2018-07-22T00:23:21.991Z,0.00
2018-07-22T00:24:21.974Z,0.00
2018-07-22T00:25:22.007Z,0.00
2018-07-22T00:26:21.998Z,0.00
2018-07-22T00:27:21.947Z,0.00
2018-07-22T00:28:21.948Z,0.00
2018-07-22T00:29:21.946Z,0.00
2018-07-22T00:30:21.976Z,0.00
2018-07-22T00:31:21.982Z,0.00
2018-07-22T00:32:21.920Z,0.00
2018-07-22T00:33:21.920Z,0.00
2018-07-22T00:34:21.909Z,0.00
2018-07-22T00:35:21.889Z,0.00
2018-07-22T00:36:21.880Z,0.00
2018-07-22T00:37:21.895Z,0.00
2018-07-22T00:38:21.879Z,0.00
2018-07-22T00:39:21.874Z,0.00
2018-07-22T00:40:21.872Z,0.00
2018-07-22T00:41:22.129Z,0.00
2018-07-22T00:42:21.850Z,0.00
2018-07-22T00:43:21.844Z,0.00
2018-07-22T00:44:21.828Z,0.00
2018-07-22T00:45:21.828Z,0.00
2018-07-22T00:46:21.815Z,0.00
2018-07-22T00:47:21.826Z,0.00
2018-07-22T00:48:21.814Z,0.00
2018-07-22T00:49:21.809Z,0.00
2018-07-22T00:50:21.792Z,0.00
2018-07-22T00:51:21.793Z,0.00
2018-07-22T00:52:21.864Z,0.00
2018-07-22T00:53:21.774Z,0.00
2018-07-22T00:54:21.773Z,0.00
2018-07-22T00:55:21.756Z,0.00
2018-07-22T00:56:21.741Z,0.00
2018-07-22T00:57:21.748Z,0.00
2018-07-22T00:58:21.771Z,0.00
2018-07-22T00:59:21.734Z,0.00
2018-07-22T01:00:21.777Z,0.00
2018-07-22T01:01:21.710Z,0.00
2018-07-22T01:02:21.714Z,0.00
2018-07-22T01:03:21.738Z,0.00
2018-07-22T01:04:21.715Z,0.00
2018-07-22T01:05:21.685Z,0.00
2018-07-22T01:06:21.685Z,0.00
2018-07-22T01:07:21.683Z,0.00
2018-07-22T01:08:21.718Z,0.00
2018-07-22T01:09:21.670Z,0.00
2018-07-22T01:10:21.655Z,0.00
2018-07-22T01:11:21.650Z,0.00
2018-07-22T01:12:21.646Z,0.00
2018-07-22T01:13:21.632Z,0.00
2018-07-22T01:14:21.700Z,0.00
2018-07-22T01:15:21.620Z,0.00
2018-07-22T01:16:21.617Z,0.00
2018-07-22T01:17:21.597Z,0.00
2018-07-22T01:18:21.597Z,0.00
2018-07-22T01:19:21.593Z,0.00
2018-07-22T01:20:21.609Z,0.00
2018-07-22T01:21:21.593Z,0.00
2018-07-22T01:22:21.572Z,0.00
2018-07-22T01:23:21.560Z,0.00
2018-07-22T01:24:21.595Z,0.00
2018-07-22T01:25:21.545Z,0.00
2018-07-22T01:26:21.549Z,0.00
2018-07-22T01:27:21.540Z,0.00
2018-07-22T01:28:21.540Z,0.00
2018-07-22T01:29:21.570Z,0.00
2018-07-22T01:30:21.529Z,0.00
2018-07-22T01:31:21.506Z,0.00
2018-07-22T01:32:21.510Z,0.00
2018-07-22T01:33:21.500Z,0.00
2018-07-22T01:34:21.510Z,0.00
2018-07-22T01:35:21.493Z,0.00
2018-07-22T01:36:21.475Z,0.00
2018-07-22T01:37:21.464Z,0.00
2018-07-22T01:38:21.460Z,0.00
2018-07-22T01:39:21.450Z,0.00
2018-07-22T01:40:21.445Z,0.00
2018-07-22T01:41:21.442Z,0.00
2018-07-22T01:42:21.469Z,0.00
2018-07-22T01:43:21.488Z,0.00
2018-07-22T01:44:21.422Z,0.00
2018-07-22T01:45:21.419Z,0.00
2018-07-22T01:46:21.415Z,0.00
2018-07-22T01:47:21.429Z,0.00
2018-07-22T01:48:21.431Z,0.00
2018-07-22T01:49:21.383Z,0.00
2018-07-22T01:50:21.379Z,0.00
2018-07-22T01:51:21.358Z,0.00
2018-07-22T01:52:21.416Z,0.00
2018-07-22T01:53:21.365Z,0.00
2018-07-22T01:54:21.348Z,0.00
2018-07-22T01:55:21.348Z,0.00
2018-07-22T01:56:21.340Z,0.00
2018-07-22T01:57:21.329Z,0.00
2018-07-22T01:58:21.388Z,0.00
2018-07-22T01:59:21.316Z,0.00
2018-07-22T02:00:21.317Z,0.00
2018-07-22T02:01:21.307Z,0.00
2018-07-22T02:02:21.304Z,0.00
2018-07-22T02:03:21.280Z,0.00
2018-07-22T02:04:21.309Z,0.00
2018-07-22T02:05:21.276Z,0.00
2018-07-22T02:06:21.270Z,0.00
2018-07-22T02:07:21.305Z,0.00
2018-07-22T02:08:21.254Z,0.00
2018-07-22T02:09:21.259Z,0.00
2018-07-22T02:10:21.249Z,0.00
2018-07-22T02:11:21.217Z,0.00
2018-07-22T02:12:21.221Z,0.00
2018-07-22T02:13:21.220Z,0.00
2018-07-22T02:14:21.242Z,0.00
2018-07-22T02:15:21.235Z,0.00
2018-07-22T02:16:21.201Z,0.00
2018-07-22T02:17:21.188Z,0.00
2018-07-22T02:18:21.177Z,0.00
2018-07-22T02:19:21.202Z,0.00
2018-07-22T02:20:21.161Z,0.00
2018-07-22T02:21:21.225Z,0.00
2018-07-22T02:22:21.169Z,0.00
2018-07-22T02:23:21.147Z,0.00
2018-07-22T02:24:21.150Z,0.00
2018-07-22T02:25:21.125Z,0.00
2018-07-22T02:26:21.117Z,0.00
2018-07-22T02:27:21.121Z,0.00
2018-07-22T02:28:21.103Z,0.00
2018-07-22T02:29:21.099Z,0.00
2018-07-22T02:30:21.088Z,0.00
2018-07-22T02:31:21.081Z,0.00
2018-07-22T02:32:21.112Z,0.00
2018-07-22T02:33:21.072Z,0.00
2018-07-22T02:34:21.071Z,0.00
2018-07-22T02:35:21.055Z,0.00
2018-07-22T02:36:21.053Z,0.00
2018-07-22T02:37:21.079Z,0.00
2018-07-22T02:38:21.051Z,0.00
2018-07-22T02:39:21.068Z,0.00
2018-07-22T02:40:21.022Z,0.00
2018-07-22T02:41:21.006Z,0.00
2018-07-22T02:42:21.012Z,0.00
2018-07-22T02:43:20.996Z,0.00
2018-07-22T02:44:21.142Z,0.00
2018-07-22T02:45:20.987Z,0.00
2018-07-22T02:46:20.980Z,0.00
2018-07-22T02:47:20.987Z,0.00
2018-07-22T02:48:20.991Z,0.00
2018-07-22T02:49:20.943Z,0.00
2018-07-22T02:50:20.977Z,0.00
2018-07-22T02:51:20.936Z,0.00
2018-07-22T02:52:20.931Z,0.00
2018-07-22T02:53:20.929Z,0.00
2018-07-22T02:54:20.917Z,0.00
2018-07-22T02:55:20.955Z,0.00
2018-07-22T02:56:20.916Z,0.00
2018-07-22T02:57:20.891Z,0.00
2018-07-22T02:58:20.887Z,0.00
2018-07-22T02:59:20.883Z,0.00
2018-07-22T03:00:20.880Z,0.00
2018-07-22T03:01:20.882Z,0.00
2018-07-22T03:02:20.849Z,0.00
2018-07-22T03:03:20.876Z,0.00
2018-07-22T03:04:20.831Z,0.00
2018-07-22T03:05:20.844Z,0.00
2018-07-22T03:06:20.856Z,0.00
2018-07-22T03:07:20.833Z,0.00
2018-07-22T03:08:20.817Z,4.00
2018-07-22T03:09:21.150Z,4.00
2018-07-22T03:10:20.794Z,0.00
2018-07-22T03:11:20.794Z,0.00
2018-07-22T03:12:20.792Z,0.00
2018-07-22T03:13:20.793Z,4.00
2018-07-22T03:14:20.777Z,4.00
2018-07-22T03:15:20.799Z,0.00
2018-07-22T03:16:20.749Z,4.00
2018-07-22T03:17:20.741Z,4.00
2018-07-22T03:18:20.739Z,4.00
2018-07-22T03:19:20.732Z,4.00
2018-07-22T03:20:20.795Z,4.00
2018-07-22T03:21:20.724Z,4.00
2018-07-22T03:22:20.728Z,4.00
2018-07-22T03:23:20.714Z,8.00
2018-07-22T03:24:20.701Z,8.00
2018-07-22T03:25:20.693Z,8.00
2018-07-22T03:26:20.694Z,8.00
2018-07-22T03:27:20.674Z,12.00
2018-07-22T03:28:20.665Z,8.00
2018-07-22T03:29:20.865Z,8.00
2018-07-22T03:30:20.685Z,12.00
2018-07-22T03:31:20.644Z,12.00
2018-07-22T03:32:20.639Z,12.00
2018-07-22T03:33:20.641Z,16.00
2018-07-22T03:34:20.624Z,16.00
2018-07-22T03:35:20.618Z,20.00
2018-07-22T03:36:20.609Z,20.00
2018-07-22T03:37:20.672Z,24.00
2018-07-22T03:38:20.596Z,20.00
2018-07-22T03:39:20.589Z,24.00
2018-07-22T03:40:20.581Z,24.00
2018-07-22T03:41:20.578Z,28.00
2018-07-22T03:42:20.565Z,32.00
2018-07-22T03:43:20.555Z,32.00
2018-07-22T03:44:20.557Z,32.00
2018-07-22T03:45:20.540Z,40.00
2018-07-22T03:46:20.548Z,40.00
2018-07-22T03:47:20.582Z,40.00
2018-07-22T03:48:20.521Z,44.00
2018-07-22T03:49:20.504Z,48.00
2018-07-22T03:50:20.494Z,52.00
2018-07-22T03:51:20.511Z,52.00
2018-07-22T03:52:20.533Z,56.00
2018-07-22T03:53:20.482Z,56.00
2018-07-22T03:54:20.469Z,60.00
2018-07-22T03:55:20.548Z,64.00
2018-07-22T03:56:20.468Z,64.00
2018-07-22T03:57:20.464Z,68.00
2018-07-22T03:58:20.448Z,68.00
2018-07-22T03:59:20.476Z,72.00
2018-07-22T04:00:21.155Z,76.00
2018-07-22T04:01:20.444Z,80.00
2018-07-22T04:02:20.417Z,84.00
2018-07-22T04:03:20.409Z,88.00
2018-07-22T04:04:20.403Z,92.00
2018-07-22T04:05:20.406Z,96.00
2018-07-22T04:06:20.423Z,100.00
2018-07-22T04:07:20.391Z,104.00
2018-07-22T04:08:20.364Z,112.00
2018-07-22T04:09:20.373Z,116.00
2018-07-22T04:10:20.359Z,124.00
2018-07-22T04:11:20.378Z,128.00
2018-07-22T04:12:20.348Z,132.00
2018-07-22T04:13:20.357Z,136.00
2018-07-22T04:14:20.335Z,144.00
2018-07-22T04:15:20.312Z,148.00
2018-07-22T04:16:20.346Z,152.00
2018-07-22T04:17:20.326Z,160.00
2018-07-22T04:18:20.690Z,164.00
2018-07-22T04:19:20.294Z,168.00
2018-07-22T04:20:20.290Z,176.00
2018-07-22T04:21:20.335Z,180.00
2018-07-22T04:22:20.313Z,184.00
2018-07-22T04:23:20.266Z,188.00
2018-07-22T04:24:20.257Z,196.00
2018-07-22T04:25:20.252Z,200.00
2018-07-22T04:26:20.240Z,204.00
2018-07-22T04:27:20.297Z,208.00
2018-07-22T04:28:20.235Z,212.00
2018-07-22T04:29:20.213Z,216.00
2018-07-22T04:30:20.263Z,220.00
2018-07-22T04:31:20.197Z,228.00
2018-07-22T04:32:20.182Z,228.00
2018-07-22T04:33:20.217Z,240.00
2018-07-22T04:34:20.190Z,244.00
2018-07-22T04:35:20.177Z,256.00
2018-07-22T04:36:20.158Z,264.00
2018-07-22T04:37:20.185Z,272.00
2018-07-22T04:38:20.150Z,272.00
2018-07-22T04:39:20.148Z,276.00
2018-07-22T04:40:20.127Z,272.00
2018-07-22T04:41:20.137Z,272.00
2018-07-22T04:42:20.189Z,268.00
2018-07-22T04:43:20.139Z,264.00
2018-07-22T04:44:20.147Z,256.00
2018-07-22T04:45:20.095Z,248.00
2018-07-22T04:46:20.084Z,244.00
2018-07-22T04:47:20.086Z,244.00
2018-07-22T04:48:20.086Z,244.00
2018-07-22T04:49:20.093Z,240.00
2018-07-22T04:50:20.063Z,236.00
2018-07-22T04:51:20.066Z,232.00
2018-07-22T04:52:20.048Z,232.00
2018-07-22T04:53:20.044Z,228.00
2018-07-22T04:54:20.065Z,228.00
2018-07-22T04:55:20.023Z,228.00
2018-07-22T04:56:20.008Z,228.00
2018-07-22T04:57:20.003Z,236.00
2018-07-22T04:58:20.020Z,240.00
2018-07-22T04:59:19.989Z,244.00
2018-07-22T05:00:20.000Z,248.00
2018-07-22T05:01:19.983Z,256.00
2018-07-22T05:02:19.964Z,260.00
2018-07-22T05:03:19.958Z,264.00
2018-07-22T05:04:20.025Z,272.00
2018-07-22T05:05:19.945Z,288.00
2018-07-22T05:06:19.942Z,300.00
2018-07-22T05:07:19.927Z,312.00
2018-07-22T05:08:19.936Z,320.00
2018-07-22T05:09:19.913Z,332.00
2018-07-22T05:10:19.904Z,344.00
2018-07-22T05:11:19.903Z,352.00
2018-07-22T05:12:19.886Z,352.00
2018-07-22T05:13:19.883Z,356.00
2018-07-22T05:14:19.869Z,356.00
2018-07-22T05:15:19.876Z,356.00
2018-07-22T05:16:19.909Z,352.00
2018-07-22T05:17:19.860Z,348.00
2018-07-22T05:18:19.840Z,348.00
2018-07-22T05:19:19.829Z,344.00
2018-07-22T05:20:19.830Z,352.00
2018-07-22T05:21:19.856Z,356.00
2018-07-22T05:22:19.821Z,360.00
2018-07-22T05:23:19.805Z,376.00
2018-07-22T05:24:19.801Z,392.00
2018-07-22T05:25:19.797Z,412.00
2018-07-22T05:26:19.819Z,428.00
2018-07-22T05:27:19.781Z,448.00
2018-07-22T05:28:19.812Z,468.00
2018-07-22T05:29:19.792Z,492.00
2018-07-22T05:30:19.762Z,504.00
2018-07-22T05:31:19.742Z,528.00
2018-07-22T05:32:19.742Z,544.00
2018-07-22T05:33:19.774Z,564.00
2018-07-22T05:34:19.732Z,588.00
2018-07-22T05:35:19.725Z,612.00
2018-07-22T05:36:19.704Z,636.00
2018-07-22T05:37:19.701Z,664.00
2018-07-22T05:38:19.725Z,696.00
2018-07-22T05:39:19.687Z,724.00
2018-07-22T05:40:19.670Z,752.00
2018-07-22T05:41:19.713Z,768.00
2018-07-22T05:42:19.672Z,788.00
2018-07-22T05:43:19.699Z,824.00
2018-07-22T05:44:19.651Z,852.00
2018-07-22T05:45:19.629Z,892.00
2018-07-22T05:46:19.616Z,944.00
2018-07-22T05:47:19.629Z,980.00
2018-07-22T05:48:19.614Z,1040.00
2018-07-22T05:49:19.665Z,1116.00
2018-07-22T05:50:19.598Z,1172.00
2018-07-22T05:51:19.579Z,1208.00
2018-07-22T05:52:19.590Z,1216.00
2018-07-22T05:53:19.572Z,1208.00
2018-07-22T05:54:19.572Z,1200.00
2018-07-22T05:55:19.552Z,1172.00
2018-07-22T05:56:19.552Z,1168.00
2018-07-22T05:57:19.547Z,1172.00
2018-07-22T05:58:19.544Z,1184.00
2018-07-22T05:59:19.527Z,1204.00
2018-07-22T06:00:19.561Z,1228.00
2018-07-22T06:01:19.527Z,1236.00
2018-07-22T06:02:19.499Z,1248.00
2018-07-22T06:03:19.501Z,1264.00
2018-07-22T06:04:19.484Z,1296.00
2018-07-22T06:05:19.719Z,1348.00
2018-07-22T06:06:19.475Z,1404.00
2018-07-22T06:07:19.472Z,1448.00
2018-07-22T06:08:19.463Z,1480.00
2018-07-22T06:09:19.463Z,1496.00
2018-07-22T06:10:19.480Z,1496.00
2018-07-22T06:11:19.475Z,1504.00
2018-07-22T06:12:19.425Z,1516.00
2018-07-22T06:13:19.415Z,1528.00
2018-07-22T06:14:19.416Z,1548.00
2018-07-22T06:15:19.478Z,1564.00
2018-07-22T06:16:19.411Z,1584.00
2018-07-22T06:17:19.391Z,1616.00
2018-07-22T06:18:19.368Z,1652.00
2018-07-22T06:19:19.372Z,1668.00
2018-07-22T06:20:19.369Z,1700.00
2018-07-22T06:21:19.726Z,1724.00
2018-07-22T06:22:19.348Z,1724.00
2018-07-22T06:23:19.353Z,1704.00
2018-07-22T06:24:19.336Z,1672.00
2018-07-22T06:25:19.341Z,1672.00
2018-07-22T06:26:19.329Z,1668.00
2018-07-22T06:27:19.334Z,1664.00
2018-07-22T06:28:19.296Z,1660.00
2018-07-22T06:29:19.304Z,1668.00
2018-07-22T06:30:19.289Z,1680.00
2018-07-22T06:31:19.280Z,1688.00
2018-07-22T06:32:19.322Z,1700.00
2018-07-22T06:33:19.298Z,1716.00
2018-07-22T06:34:19.259Z,1736.00
2018-07-22T06:35:19.296Z,1764.00
2018-07-22T06:36:19.238Z,1796.00
2018-07-22T06:37:19.257Z,1828.00
2018-07-22T06:38:19.260Z,1856.00
2018-07-22T06:39:19.222Z,1892.00
2018-07-22T06:40:19.210Z,1912.00
2018-07-22T06:41:19.237Z,1936.00
2018-07-22T06:42:19.196Z,1952.00
2018-07-22T06:43:19.207Z,1964.00
2018-07-22T06:44:19.210Z,1996.00
2018-07-22T06:45:19.176Z,2024.00
2018-07-22T06:46:19.184Z,2048.00
2018-07-22T06:47:19.159Z,2080.00
2018-07-22T06:48:19.157Z,2116.00
2018-07-22T06:49:19.152Z,2144.00
2018-07-22T06:50:19.151Z,2164.00
2018-07-22T06:51:19.127Z,2184.00
2018-07-22T06:52:19.122Z,2192.00
2018-07-22T06:53:19.235Z,2212.00
2018-07-22T06:54:19.131Z,2232.00
2018-07-22T06:55:19.103Z,2264.00
2018-07-22T06:56:19.114Z,2292.00
2018-07-22T06:57:19.091Z,2324.00
2018-07-22T06:58:19.097Z,2364.00
2018-07-22T06:59:19.100Z,2396.00
2018-07-22T07:00:19.143Z,2376.00
2018-07-22T07:01:19.068Z,2400.00
2018-07-22T07:02:19.052Z,2424.00
2018-07-22T07:03:19.035Z,2440.00
2018-07-22T07:04:19.069Z,2492.00
2018-07-22T07:05:19.081Z,2508.00
2018-07-22T07:06:19.022Z,2516.00
2018-07-22T07:07:19.243Z,2532.00
2018-07-22T07:08:19.005Z,2552.00
2018-07-22T07:09:19.003Z,2568.00
2018-07-22T07:10:18.984Z,2668.00
2018-07-22T07:11:18.985Z,2656.00
2018-07-22T07:12:18.996Z,2668.00
2018-07-22T07:13:19.005Z,2708.00
2018-07-22T07:14:18.958Z,2768.00
2018-07-22T07:15:18.966Z,2772.00
2018-07-22T07:16:19.273Z,2796.00
2018-07-22T07:17:18.933Z,2848.00
2018-07-22T07:18:18.931Z,2904.00
2018-07-22T07:19:18.932Z,2916.00
2018-07-22T07:20:18.920Z,2968.00
2018-07-22T07:21:18.921Z,3148.00
2018-07-22T07:22:18.933Z,3324.00
2018-07-22T07:23:18.904Z,3124.00
2018-07-22T07:24:18.886Z,3064.00
2018-07-22T07:25:18.885Z,3108.00
2018-07-22T07:26:18.904Z,3016.00
2018-07-22T07:27:18.905Z,3028.00
2018-07-22T07:28:18.976Z,3000.00
2018-07-22T07:29:18.902Z,3036.00
2018-07-22T07:30:18.859Z,3052.00
2018-07-22T07:31:18.880Z,2992.00
2018-07-22T07:32:18.843Z,3024.00
2018-07-22T07:33:20.193Z,3060.00
2018-07-22T07:34:19.106Z,3068.00
2018-07-22T07:35:18.816Z,3096.00
2018-07-22T07:36:18.813Z,3188.00
2018-07-22T07:37:18.802Z,3200.00
2018-07-22T07:38:18.802Z,3192.00
2018-07-22T07:39:18.801Z,3216.00
2018-07-22T07:40:18.792Z,3248.00
2018-07-22T07:41:18.787Z,3292.00
2018-07-22T07:42:18.838Z,3296.00
2018-07-22T07:43:18.809Z,3356.00
2018-07-22T07:44:18.752Z,3356.00
2018-07-22T07:45:18.740Z,3356.00
2018-07-22T07:46:18.747Z,3376.00
2018-07-22T07:47:18.797Z,3380.00
2018-07-22T07:48:18.730Z,3352.00
2018-07-22T07:49:18.721Z,3348.00
2018-07-22T07:50:18.716Z,3356.00
2018-07-22T07:51:18.702Z,3428.00
2018-07-22T07:52:18.705Z,3404.00
2018-07-22T07:53:19.008Z,3420.00
2018-07-22T07:54:18.745Z,3444.00
2018-07-22T07:55:18.681Z,3484.00
2018-07-22T07:56:18.717Z,3508.00
2018-07-22T07:57:18.681Z,3616.00
2018-07-22T07:58:18.655Z,3596.00
2018-07-22T07:59:18.673Z,3708.00
2018-07-22T08:00:18.643Z,3676.00
2018-07-22T08:01:18.750Z,3664.00
2018-07-22T08:02:19.453Z,3716.00
2018-07-22T08:03:18.622Z,3736.00
2018-07-22T08:04:18.679Z,3804.00
2018-07-22T08:05:19.119Z,3840.00
2018-07-22T08:06:18.601Z,3912.00
2018-07-22T08:07:18.603Z,3900.00
2018-07-22T08:08:18.586Z,3956.00
2018-07-22T08:09:18.576Z,3976.00
2018-07-22T08:10:18.619Z,3956.00
2018-07-22T08:11:18.581Z,3980.00
2018-07-22T08:12:18.593Z,4000.00
2018-07-22T08:13:18.555Z,4036.00
2018-07-22T08:14:18.546Z,4048.00
2018-07-22T08:15:18.547Z,4148.00
2018-07-22T08:16:18.537Z,4248.00
2018-07-22T08:17:18.563Z,5280.00
2018-07-22T08:18:18.620Z,4556.00
2018-07-22T08:19:18.776Z,4432.00
2018-07-22T08:20:18.664Z,4372.00
2018-07-22T08:21:18.505Z,4124.00
2018-07-22T08:22:18.610Z,4228.00
2018-07-22T08:23:18.493Z,4396.00
2018-07-22T08:24:18.519Z,6780.00
2018-07-22T08:25:18.482Z,7692.00
2018-07-22T08:26:18.481Z,6412.00
2018-07-22T08:27:18.494Z,4272.00
2018-07-22T08:28:18.463Z,4728.00
2018-07-22T08:29:18.482Z,4784.00
2018-07-22T08:30:18.448Z,6064.00
2018-07-22T08:31:18.443Z,5044.00
2018-07-22T08:32:18.442Z,4520.00
2018-07-22T08:33:18.429Z,4548.00
2018-07-22T08:34:18.448Z,4748.00
2018-07-22T08:35:18.462Z,5336.00
2018-07-22T08:36:18.418Z,4868.00
2018-07-22T08:37:18.416Z,6492.00
2018-07-22T08:38:18.405Z,6456.00
2018-07-22T08:39:18.401Z,6288.00
2018-07-22T08:40:18.392Z,5368.00
2018-07-22T08:41:18.816Z,5164.00
2018-07-22T08:42:18.375Z,5024.00
2018-07-22T08:43:18.373Z,5288.00
2018-07-22T08:44:18.369Z,4936.00
2018-07-22T08:45:18.362Z,5148.00
2018-07-22T08:46:18.356Z,5052.00
2018-07-22T08:47:18.404Z,5348.00
2018-07-22T08:48:18.344Z,7044.00
2018-07-22T08:49:18.415Z,11932.00
2018-07-22T08:50:18.335Z,12392.00
2018-07-22T08:51:18.327Z,33504.00
2018-07-22T08:52:18.368Z,68096.00
2018-07-22T08:53:18.394Z,56768.00
2018-07-22T08:54:18.314Z,38080.00
2018-07-22T08:55:18.337Z,37120.00
2018-07-22T08:56:18.301Z,37408.00
2018-07-22T08:57:18.303Z,34912.00
2018-07-22T08:58:18.318Z,29440.00
2018-07-22T08:59:18.289Z,23040.00
2018-07-22T09:00:18.286Z,28704.00
2018-07-22T09:01:18.280Z,31424.00
2018-07-22T09:02:18.269Z,31584.00
2018-07-22T09:03:18.308Z,30656.00
2018-07-22T09:04:18.274Z,31712.00
2018-07-22T09:05:18.274Z,36128.00
2018-07-22T09:06:18.266Z,37568.00
2018-07-22T09:07:18.321Z,39392.00
2018-07-22T09:08:18.320Z,41792.00
2018-07-22T09:09:18.267Z,42432.00
2018-07-22T09:10:18.258Z,45312.00
2018-07-22T09:11:18.263Z,48736.00
2018-07-22T09:12:18.265Z,50656.00
2018-07-22T09:13:18.290Z,51872.00
2018-07-22T09:14:18.265Z,53600.00
2018-07-22T09:15:18.269Z,54816.00
2018-07-22T09:16:18.267Z,54240.00
2018-07-22T09:17:18.254Z,54912.00
2018-07-22T09:18:18.298Z,56544.00
2018-07-22T09:19:18.259Z,57472.00
2018-07-22T09:20:18.267Z,55712.00
2018-07-22T09:21:18.306Z,54656.00
2018-07-22T09:22:18.260Z,55616.00
2018-07-22T09:23:18.280Z,53344.00
2018-07-22T09:24:18.270Z,52448.00
2018-07-22T09:25:18.283Z,54912.00
2018-07-22T09:26:18.315Z,55168.00
2018-07-22T09:27:18.283Z,60032.00
2018-07-22T09:28:18.277Z,68960.00
2018-07-22T09:29:18.286Z,65536.00
2018-07-22T09:30:18.278Z,59328.00
2018-07-22T09:31:18.319Z,57760.00
2018-07-22T09:32:18.298Z,58816.00
2018-07-22T09:33:18.294Z,61888.00
2018-07-22T09:34:18.293Z,66048.00
2018-07-22T09:35:18.300Z,66784.00
2018-07-22T09:36:18.399Z,71264.00
2018-07-22T09:37:18.306Z,67680.00
2018-07-22T09:38:18.678Z,63904.00
2018-07-22T09:39:18.314Z,56864.00
2018-07-22T09:40:18.303Z,62496.00
2018-07-22T09:41:18.309Z,63328.00
2018-07-22T09:42:18.310Z,63520.00
2018-07-22T09:43:18.316Z,64480.00
2018-07-22T09:44:18.339Z,59584.00
2018-07-22T09:45:18.332Z,59680.00
2018-07-22T09:46:18.332Z,59616.00
2018-07-22T09:47:18.333Z,56576.00
2018-07-22T09:48:18.375Z,60064.00
2018-07-22T09:49:19.450Z,66144.00
2018-07-22T09:50:18.706Z,67616.00
2018-07-22T09:51:18.350Z,67488.00
2018-07-22T09:52:18.353Z,67872.00
2018-07-22T09:53:18.346Z,67456.00
2018-07-22T09:54:18.365Z,64960.00
2018-07-22T09:55:18.374Z,64864.00
2018-07-22T09:56:18.396Z,64512.00
2018-07-22T09:57:18.363Z,64064.00
2018-07-22T09:58:18.387Z,59968.00
2018-07-22T09:59:18.427Z,59168.00
2018-07-22T10:00:18.385Z,63776.00
2018-07-22T10:01:18.410Z,62144.00
2018-07-22T10:02:18.387Z,58016.00
2018-07-22T10:03:18.383Z,56512.00
2018-07-22T10:04:18.414Z,54912.00
2018-07-22T10:05:18.440Z,54752.00
2018-07-22T10:06:18.434Z,53632.00
2018-07-22T10:07:18.409Z,53792.00
2018-07-22T10:08:18.416Z,58464.00
2018-07-22T10:09:18.431Z,62016.00
2018-07-22T10:10:18.434Z,59648.00
2018-07-22T10:11:18.553Z,58976.00
2018-07-22T10:12:18.430Z,61728.00
2018-07-22T10:13:18.435Z,60864.00
2018-07-22T10:14:18.460Z,57696.00
2018-07-22T10:15:18.434Z,57376.00
2018-07-22T10:16:18.459Z,59040.00
2018-07-22T10:17:18.454Z,59328.00
2018-07-22T10:18:18.456Z,60832.00
2018-07-22T10:19:18.457Z,63040.00
2018-07-22T10:20:18.472Z,64768.00
2018-07-22T10:21:18.501Z,63904.00
2018-07-22T10:22:18.486Z,64032.00
2018-07-22T10:23:18.537Z,64416.00
2018-07-22T10:24:18.493Z,62752.00
2018-07-22T10:25:18.477Z,59872.00
2018-07-22T10:26:18.540Z,59808.00
2018-07-22T10:27:18.491Z,65248.00
2018-07-22T10:28:18.567Z,70112.00
2018-07-22T10:29:18.508Z,73120.00
2018-07-22T10:30:18.519Z,68672.00
2018-07-22T10:31:18.515Z,62496.00
2018-07-22T10:32:18.510Z,64128.00
2018-07-22T10:33:18.518Z,64448.00
2018-07-22T10:34:18.533Z,67392.00
2018-07-22T10:35:18.528Z,73568.00
2018-07-22T10:36:18.541Z,74944.00
2018-07-22T10:37:18.541Z,72032.00
2018-07-22T10:38:18.549Z,70048.00
2018-07-22T10:39:18.581Z,68352.00
2018-07-22T10:40:18.595Z,69472.00
2018-07-22T10:41:18.604Z,61248.00
2018-07-22T10:42:18.568Z,61024.00
2018-07-22T10:43:18.591Z,65120.00
2018-07-22T10:44:18.575Z,61984.00
2018-07-22T10:45:18.584Z,67936.00
2018-07-22T10:46:18.586Z,69600.00
2018-07-22T10:47:18.582Z,24256.00
2018-07-22T10:48:18.603Z,73696.00
2018-07-22T10:49:18.594Z,64256.00
2018-07-22T10:50:18.635Z,55392.00
2018-07-22T10:51:18.608Z,23136.00
2018-07-22T10:52:18.619Z,23360.00
2018-07-22T10:53:18.630Z,72704.00
2018-07-22T10:54:18.622Z,40896.00
2018-07-22T10:55:18.659Z,58208.00
2018-07-22T10:56:18.623Z,66272.00
2018-07-22T10:57:18.636Z,68608.00
2018-07-22T10:58:18.651Z,61504.00
2018-07-22T10:59:18.941Z,46720.00
2018-07-22T11:00:18.672Z,57216.00
2018-07-22T11:01:18.655Z,27616.00
2018-07-22T11:02:18.700Z,26816.00
2018-07-22T11:03:18.723Z,19264.00
2018-07-22T11:04:18.755Z,18016.00
2018-07-22T11:05:18.668Z,14432.00
2018-07-22T11:06:18.706Z,54560.00
2018-07-22T11:07:18.702Z,50208.00
2018-07-22T11:08:18.681Z,14496.00
2018-07-22T11:09:18.682Z,10228.00
2018-07-22T11:10:18.687Z,15264.00
2018-07-22T11:11:18.701Z,45184.00
2018-07-22T11:12:18.723Z,83552.00
2018-07-22T11:13:18.703Z,59392.00
2018-07-22T11:14:18.751Z,23808.00
2018-07-22T11:15:18.696Z,55904.00
2018-07-22T11:16:18.707Z,46432.00
2018-07-22T11:17:18.762Z,77408.00
2018-07-22T11:18:18.713Z,75136.00
2018-07-22T11:19:18.716Z,86080.00
2018-07-22T11:20:18.717Z,76256.00
2018-07-22T11:21:18.762Z,76256.00
2018-07-22T11:22:18.720Z,80448.00
2018-07-22T11:23:18.901Z,76800.00
2018-07-22T11:24:18.736Z,71520.00
2018-07-22T11:25:18.735Z,50784.00
2018-07-22T11:26:18.734Z,74176.00
2018-07-22T11:27:18.753Z,73440.00
2018-07-22T11:28:18.737Z,73920.00
2018-07-22T11:29:18.760Z,82016.00
2018-07-22T11:30:18.926Z,87200.00
2018-07-22T11:31:18.747Z,79552.00
2018-07-22T11:32:18.756Z,80992.00
2018-07-22T11:33:18.760Z,88576.00
2018-07-22T11:34:18.773Z,87904.00
2018-07-22T11:35:18.764Z,82816.00
2018-07-22T11:36:18.777Z,84672.00
2018-07-22T11:37:18.779Z,78784.00
2018-07-22T11:38:18.776Z,59712.00
2018-07-22T11:39:18.783Z,67808.00
2018-07-22T11:40:18.796Z,64512.00
2018-07-22T11:41:18.807Z,62400.00
2018-07-22T11:42:18.806Z,56608.00
2018-07-22T11:43:18.804Z,47392.00
2018-07-22T11:44:18.808Z,50656.00
2018-07-22T11:45:18.820Z,38272.00
2018-07-22T11:46:18.857Z,31680.00
2018-07-22T11:47:18.832Z,31232.00
2018-07-22T11:48:18.862Z,23776.00
2018-07-22T11:49:18.828Z,12372.00
2018-07-22T11:50:18.893Z,13136.00
2018-07-22T11:51:18.856Z,15296.00
2018-07-22T11:52:18.851Z,15200.00
2018-07-22T11:53:18.888Z,27200.00
2018-07-22T11:54:18.862Z,12280.00
2018-07-22T11:55:18.868Z,13588.00
2018-07-22T11:56:18.864Z,12204.00
2018-07-22T11:57:18.905Z,10172.00
2018-07-22T11:58:18.871Z,21920.00
2018-07-22T11:59:19.069Z,34816.00
2018-07-22T12:00:18.880Z,16032.00
2018-07-22T12:01:18.934Z,11724.00
2018-07-22T12:02:18.885Z,19744.00
2018-07-22T12:03:18.887Z,11400.00
2018-07-22T12:04:18.888Z,14400.00
2018-07-22T12:05:18.936Z,10660.00
2018-07-22T12:06:18.895Z,8252.00
2018-07-22T12:07:18.936Z,8080.00
2018-07-22T12:08:18.900Z,4564.00
2018-07-22T12:09:19.057Z,5400.00
2018-07-22T12:10:18.979Z,5732.00
2018-07-22T12:11:18.896Z,6512.00
2018-07-22T12:12:18.956Z,6100.00
2018-07-22T12:13:18.935Z,6028.00
2018-07-22T12:14:18.919Z,5636.00
2018-07-22T12:15:18.908Z,5376.00
2018-07-22T12:16:18.914Z,5216.00
2018-07-22T12:17:18.904Z,5064.00
2018-07-22T12:18:18.961Z,5108.00
2018-07-22T12:19:18.905Z,5116.00
2018-07-22T12:20:18.902Z,5024.00
2018-07-22T12:21:18.914Z,4864.00
2018-07-22T12:22:18.901Z,4988.00
2018-07-22T12:23:18.903Z,5112.00
2018-07-22T12:24:18.909Z,5208.00